sensor_id;sensor_type;location;lat;lon;timestamp;temperature;humidity
57108;DHT22;42987;52.916;6.542;2022-10-16T00:02:01;12.50;99.90
57108;DHT22;42987;52.916;6.542;2022-10-16T00:04:27;12.50;99.90
57108;DHT22;42987;52.916;6.542;2022-10-16T00:06:53;12.60;99.90
57108;DHT22;42987;52.916;6.542;2022-10-16T00:09:19;12.60;99.90
57108;DHT22;42987;52.916;6.542;2022-10-16T00:11:44;12.60;99.90
57108;DHT22;42987;52.916;6.542;2022-10-16T00:14:13;12.60;99.90
57108;DHT22;42987;52.916;6.542;2022-10-16T00:16:39;12.60;99.90
57108;DHT22;42987;52.916;6.542;2022-10-16T00:19:05;12.60;99.90
57108;DHT22;42987;52.916;6.542;2022-10-16T00:21:31;12.60;99.90
57108;DHT22;42987;52.916;6.542;2022-10-16T00:24:08;12.60;99.90
57108;DHT22;42987;52.916;6.542;2022-10-16T00:26:36;12.70;99.90
57108;DHT22;42987;52.916;6.542;2022-10-16T00:29:02;12.60;99.90
57108;DHT22;42987;52.916;6.542;2022-10-16T00:31:28;12.70;99.90
57108;DHT22;42987;52.916;6.542;2022-10-16T00:33:55;12.70;99.90
57108;DHT22;42987;52.916;6.542;2022-10-16T00:36:23;12.70;99.90
57108;DHT22;42987;52.916;6.542;2022-10-16T00:38:51;12.70;99.90
57108;DHT22;42987;52.916;6.542;2022-10-16T00:41:21;12.70;99.90
57108;DHT22;42987;52.916;6.542;2022-10-16T00:43:57;12.70;99.90
57108;DHT22;42987;52.916;6.542;2022-10-16T00:46:31;12.70;99.90
57108;DHT22;42987;52.916;6.542;2022-10-16T00:49:12;12.60;99.90
57108;DHT22;42987;52.916;6.542;2022-10-16T00:51:50;12.70;99.90
57108;DHT22;42987;52.916;6.542;2022-10-16T00:54:25;12.60;99.90
57108;DHT22;42987;52.916;6.542;2022-10-16T00:56:53;12.60;99.90
57108;DHT22;42987;52.916;6.542;2022-10-16T00:59:27;12.60;99.90
57108;DHT22;42987;52.916;6.542;2022-10-16T01:01:57;12.60;99.90
57108;DHT22;42987;52.916;6.542;2022-10-16T01:04:25;12.60;99.90
57108;DHT22;42987;52.916;6.542;2022-10-16T01:20:26;12.60;99.90
57108;DHT22;42987;52.916;6.542;2022-10-16T01:26:03;12.60;99.90
57108;DHT22;42987;52.916;6.542;2022-10-16T01:28:54;12.60;99.90
57108;DHT22;42987;52.916;6.542;2022-10-16T01:31:25;12.60;99.90
57108;DHT22;42987;52.916;6.542;2022-10-16T01:36:55;12.60;99.90
57108;DHT22;42987;52.916;6.542;2022-10-16T01:39:26;12.70;99.90
57108;DHT22;42987;52.916;6.542;2022-10-16T01:42:03;12.70;99.90
57108;DHT22;42987;52.916;6.542;2022-10-16T01:44:35;12.70;99.90
57108;DHT22;42987;52.916;6.542;2022-10-16T01:47:02;12.80;99.90
57108;DHT22;42987;52.916;6.542;2022-10-16T01:49:32;12.80;99.90
57108;DHT22;42987;52.916;6.542;2022-10-16T01:52:00;12.80;99.90
57108;DHT22;42987;52.916;6.542;2022-10-16T01:54:29;12.80;99.90
57108;DHT22;42987;52.916;6.542;2022-10-16T01:56:57;12.80;99.90
57108;DHT22;42987;52.916;6.542;2022-10-16T01:59:25;12.90;99.90
57108;DHT22;42987;52.916;6.542;2022-10-16T02:02:00;12.90;99.90
57108;DHT22;42987;52.916;6.542;2022-10-16T02:04:33;12.90;99.90
57108;DHT22;42987;52.916;6.542;2022-10-16T02:07:00;12.90;99.90
57108;DHT22;42987;52.916;6.542;2022-10-16T02:09:26;12.90;99.90
57108;DHT22;42987;52.916;6.542;2022-10-16T02:11:56;12.90;99.90
57108;DHT22;42987;52.916;6.542;2022-10-16T02:14:23;12.90;99.90
57108;DHT22;42987;52.916;6.542;2022-10-16T02:16:50;12.90;99.90
57108;DHT22;42987;52.916;6.542;2022-10-16T02:19:17;12.90;99.90
57108;DHT22;42987;52.916;6.542;2022-10-16T02:21:53;12.90;99.90
57108;DHT22;42987;52.916;6.542;2022-10-16T02:24:33;12.90;99.90
57108;DHT22;42987;52.916;6.542;2022-10-16T02:30:11;12.90;99.90
57108;DHT22;42987;52.916;6.542;2022-10-16T02:32:41;12.90;99.90
57108;DHT22;42987;52.916;6.542;2022-10-16T02:35:08;12.90;99.90
57108;DHT22;42987;52.916;6.542;2022-10-16T02:37:35;12.90;99.90
57108;DHT22;42987;52.916;6.542;2022-10-16T02:40:01;12.90;99.90
57108;DHT22;42987;52.916;6.542;2022-10-16T02:42:32;12.90;99.90
57108;DHT22;42987;52.916;6.542;2022-10-16T02:45:02;12.90;99.90
57108;DHT22;42987;52.916;6.542;2022-10-16T02:47:28;12.90;99.90
57108;DHT22;42987;52.916;6.542;2022-10-16T02:49:54;12.90;99.90
57108;DHT22;42987;52.916;6.542;2022-10-16T02:52:19;12.90;99.90
57108;DHT22;42987;52.916;6.542;2022-10-16T02:54:45;12.90;99.90
57108;DHT22;42987;52.916;6.542;2022-10-16T02:57:11;12.90;99.90
57108;DHT22;42987;52.916;6.542;2022-10-16T02:59:37;12.90;99.90
57108;DHT22;42987;52.916;6.542;2022-10-16T03:02:03;12.90;99.90
57108;DHT22;42987;52.916;6.542;2022-10-16T03:04:29;12.90;99.90
57108;DHT22;42987;52.916;6.542;2022-10-16T03:06:55;12.90;99.90
57108;DHT22;42987;52.916;6.542;2022-10-16T03:09:21;12.90;99.90
57108;DHT22;42987;52.916;6.542;2022-10-16T03:11:46;12.90;99.90
57108;DHT22;42987;52.916;6.542;2022-10-16T03:14:12;12.90;99.90
57108;DHT22;42987;52.916;6.542;2022-10-16T03:16:38;12.90;99.90
57108;DHT22;42987;52.916;6.542;2022-10-16T03:19:04;12.90;99.90
57108;DHT22;42987;52.916;6.542;2022-10-16T03:21:29;12.80;99.90
57108;DHT22;42987;52.916;6.542;2022-10-16T03:23:55;12.80;99.90
57108;DHT22;42987;52.916;6.542;2022-10-16T03:26:21;12.80;99.90
57108;DHT22;42987;52.916;6.542;2022-10-16T03:28:47;12.80;99.90
57108;DHT22;42987;52.916;6.542;2022-10-16T03:31:12;12.80;99.90
57108;DHT22;42987;52.916;6.542;2022-10-16T03:33:38;12.80;99.90
57108;DHT22;42987;52.916;6.542;2022-10-16T03:36:04;12.80;99.90
57108;DHT22;42987;52.916;6.542;2022-10-16T03:38:29;12.80;99.90
57108;DHT22;42987;52.916;6.542;2022-10-16T03:40:55;12.80;99.90
57108;DHT22;42987;52.916;6.542;2022-10-16T03:43:21;12.80;99.90
57108;DHT22;42987;52.916;6.542;2022-10-16T03:45:47;12.90;99.90
57108;DHT22;42987;52.916;6.542;2022-10-16T03:48:12;12.90;99.90
57108;DHT22;42987;52.916;6.542;2022-10-16T03:50:38;12.90;99.90
57108;DHT22;42987;52.916;6.542;2022-10-16T03:53:04;12.90;99.90
57108;DHT22;42987;52.916;6.542;2022-10-16T03:55:30;12.90;99.90
57108;DHT22;42987;52.916;6.542;2022-10-16T03:57:56;12.90;99.90
57108;DHT22;42987;52.916;6.542;2022-10-16T04:00:22;12.90;99.90
57108;DHT22;42987;52.916;6.542;2022-10-16T04:02:47;12.90;99.90
57108;DHT22;42987;52.916;6.542;2022-10-16T04:05:14;12.80;99.90
57108;DHT22;42987;52.916;6.542;2022-10-16T04:07:40;12.80;99.90
57108;DHT22;42987;52.916;6.542;2022-10-16T04:10:06;12.80;99.90
57108;DHT22;42987;52.916;6.542;2022-10-16T04:12:32;12.70;99.90
57108;DHT22;42987;52.916;6.542;2022-10-16T04:14:57;12.70;99.90
57108;DHT22;42987;52.916;6.542;2022-10-16T04:17:23;12.70;99.90
57108;DHT22;42987;52.916;6.542;2022-10-16T04:19:49;12.70;99.90
57108;DHT22;42987;52.916;6.542;2022-10-16T04:22:14;12.70;99.90
57108;DHT22;42987;52.916;6.542;2022-10-16T04:24:40;12.70;99.90
57108;DHT22;42987;52.916;6.542;2022-10-16T04:27:06;12.70;99.90
57108;DHT22;42987;52.916;6.542;2022-10-16T04:29:32;12.70;99.90
57108;DHT22;42987;52.916;6.542;2022-10-16T04:31:57;12.70;99.90
57108;DHT22;42987;52.916;6.542;2022-10-16T04:34:23;12.70;99.90
57108;DHT22;42987;52.916;6.542;2022-10-16T04:36:49;12.60;99.90
57108;DHT22;42987;52.916;6.542;2022-10-16T04:39:15;12.60;99.90
57108;DHT22;42987;52.916;6.542;2022-10-16T04:41:41;12.60;99.90
57108;DHT22;42987;52.916;6.542;2022-10-16T04:44:07;12.50;99.90
57108;DHT22;42987;52.916;6.542;2022-10-16T04:46:33;12.50;99.90
57108;DHT22;42987;52.916;6.542;2022-10-16T04:48:59;12.50;99.90
57108;DHT22;42987;52.916;6.542;2022-10-16T04:51:25;12.50;99.90
57108;DHT22;42987;52.916;6.542;2022-10-16T04:53:51;12.50;99.90
57108;DHT22;42987;52.916;6.542;2022-10-16T04:56:17;12.50;99.90
57108;DHT22;42987;52.916;6.542;2022-10-16T04:58:43;12.50;99.90
57108;DHT22;42987;52.916;6.542;2022-10-16T05:01:09;12.50;99.90
57108;DHT22;42987;52.916;6.542;2022-10-16T05:03:34;12.60;99.90
57108;DHT22;42987;52.916;6.542;2022-10-16T05:06:00;12.60;99.90
57108;DHT22;42987;52.916;6.542;2022-10-16T05:08:26;12.60;99.90
57108;DHT22;42987;52.916;6.542;2022-10-16T05:10:52;12.70;99.90
57108;DHT22;42987;52.916;6.542;2022-10-16T05:13:17;12.70;99.90
57108;DHT22;42987;52.916;6.542;2022-10-16T05:15:47;12.70;99.90
57108;DHT22;42987;52.916;6.542;2022-10-16T05:18:13;12.70;99.90
57108;DHT22;42987;52.916;6.542;2022-10-16T05:20:39;12.70;99.90
57108;DHT22;42987;52.916;6.542;2022-10-16T05:23:05;12.60;99.90
57108;DHT22;42987;52.916;6.542;2022-10-16T05:25:31;12.70;99.90
57108;DHT22;42987;52.916;6.542;2022-10-16T05:27:56;12.70;99.90
57108;DHT22;42987;52.916;6.542;2022-10-16T05:30:22;12.70;99.90
57108;DHT22;42987;52.916;6.542;2022-10-16T05:32:49;12.70;99.90
57108;DHT22;42987;52.916;6.542;2022-10-16T05:35:16;12.70;99.90
57108;DHT22;42987;52.916;6.542;2022-10-16T05:37:45;12.70;99.90
57108;DHT22;42987;52.916;6.542;2022-10-16T05:40:11;12.70;99.90
57108;DHT22;42987;52.916;6.542;2022-10-16T05:42:37;12.80;99.90
57108;DHT22;42987;52.916;6.542;2022-10-16T05:45:07;12.80;99.90
57108;DHT22;42987;52.916;6.542;2022-10-16T05:47:34;12.80;99.90
57108;DHT22;42987;52.916;6.542;2022-10-16T05:50:00;12.80;99.90
57108;DHT22;42987;52.916;6.542;2022-10-16T05:52:27;12.80;99.90
57108;DHT22;42987;52.916;6.542;2022-10-16T05:54:52;12.80;99.90
57108;DHT22;42987;52.916;6.542;2022-10-16T05:57:18;12.80;99.90
57108;DHT22;42987;52.916;6.542;2022-10-16T05:59:44;12.80;99.90
57108;DHT22;42987;52.916;6.542;2022-10-16T06:02:12;12.90;99.90
57108;DHT22;42987;52.916;6.542;2022-10-16T06:04:39;12.90;99.90
57108;DHT22;42987;52.916;6.542;2022-10-16T06:07:04;12.90;99.90
57108;DHT22;42987;52.916;6.542;2022-10-16T06:09:30;12.90;99.90
57108;DHT22;42987;52.916;6.542;2022-10-16T06:11:56;12.90;99.90
57108;DHT22;42987;52.916;6.542;2022-10-16T06:14:22;12.90;99.90
57108;DHT22;42987;52.916;6.542;2022-10-16T06:16:47;12.90;99.90
57108;DHT22;42987;52.916;6.542;2022-10-16T06:19:13;12.80;99.90
57108;DHT22;42987;52.916;6.542;2022-10-16T06:21:40;12.80;99.90
57108;DHT22;42987;52.916;6.542;2022-10-16T06:24:05;12.80;99.90
57108;DHT22;42987;52.916;6.542;2022-10-16T06:26:31;12.80;99.90
57108;DHT22;42987;52.916;6.542;2022-10-16T06:28:58;12.80;99.90
57108;DHT22;42987;52.916;6.542;2022-10-16T06:31:25;12.80;99.90
57108;DHT22;42987;52.916;6.542;2022-10-16T06:33:53;12.80;99.90
57108;DHT22;42987;52.916;6.542;2022-10-16T06:36:20;12.80;99.90
57108;DHT22;42987;52.916;6.542;2022-10-16T06:38:46;12.80;99.90
57108;DHT22;42987;52.916;6.542;2022-10-16T06:41:14;12.80;99.90
57108;DHT22;42987;52.916;6.542;2022-10-16T06:43:40;12.80;99.90
57108;DHT22;42987;52.916;6.542;2022-10-16T06:46:08;12.90;99.90
57108;DHT22;42987;52.916;6.542;2022-10-16T06:48:35;12.90;99.90
57108;DHT22;42987;52.916;6.542;2022-10-16T06:53:36;12.90;99.90
57108;DHT22;42987;52.916;6.542;2022-10-16T06:56:10;12.90;99.90
57108;DHT22;42987;52.916;6.542;2022-10-16T06:58:37;12.90;99.90
57108;DHT22;42987;52.916;6.542;2022-10-16T07:01:04;12.90;99.90
57108;DHT22;42987;52.916;6.542;2022-10-16T07:03:30;13.00;99.90
57108;DHT22;42987;52.916;6.542;2022-10-16T07:05:56;13.00;99.90
57108;DHT22;42987;52.916;6.542;2022-10-16T07:08:22;13.00;99.90
57108;DHT22;42987;52.916;6.542;2022-10-16T07:10:48;13.00;99.90
57108;DHT22;42987;52.916;6.542;2022-10-16T07:13:14;13.00;99.90
57108;DHT22;42987;52.916;6.542;2022-10-16T07:15:40;13.00;99.90
57108;DHT22;42987;52.916;6.542;2022-10-16T07:18:06;13.00;99.90
57108;DHT22;42987;52.916;6.542;2022-10-16T07:20:32;13.00;99.90
57108;DHT22;42987;52.916;6.542;2022-10-16T07:22:58;13.10;99.90
57108;DHT22;42987;52.916;6.542;2022-10-16T07:25:24;13.10;99.90
57108;DHT22;42987;52.916;6.542;2022-10-16T07:27:50;13.20;99.90
57108;DHT22;42987;52.916;6.542;2022-10-16T07:30:16;13.20;99.90
57108;DHT22;42987;52.916;6.542;2022-10-16T07:32:41;13.20;99.90
57108;DHT22;42987;52.916;6.542;2022-10-16T07:35:07;13.20;99.90
57108;DHT22;42987;52.916;6.542;2022-10-16T07:37:33;13.20;99.90
57108;DHT22;42987;52.916;6.542;2022-10-16T07:39:59;13.30;99.90
57108;DHT22;42987;52.916;6.542;2022-10-16T07:42:25;13.30;99.90
57108;DHT22;42987;52.916;6.542;2022-10-16T07:44:50;13.30;99.90
57108;DHT22;42987;52.916;6.542;2022-10-16T07:47:16;13.30;99.90
57108;DHT22;42987;52.916;6.542;2022-10-16T07:49:42;13.40;99.90
57108;DHT22;42987;52.916;6.542;2022-10-16T07:52:07;13.30;99.90
57108;DHT22;42987;52.916;6.542;2022-10-16T07:54:33;13.40;99.90
57108;DHT22;42987;52.916;6.542;2022-10-16T07:56:59;13.40;99.90
57108;DHT22;42987;52.916;6.542;2022-10-16T07:59:25;13.40;99.90
57108;DHT22;42987;52.916;6.542;2022-10-16T08:01:50;13.40;99.90
57108;DHT22;42987;52.916;6.542;2022-10-16T08:04:16;13.50;99.90
57108;DHT22;42987;52.916;6.542;2022-10-16T08:06:42;13.50;99.90
57108;DHT22;42987;52.916;6.542;2022-10-16T08:09:08;13.60;99.90
57108;DHT22;42987;52.916;6.542;2022-10-16T08:11:34;13.60;99.90
57108;DHT22;42987;52.916;6.542;2022-10-16T08:14:03;13.60;99.90
57108;DHT22;42987;52.916;6.542;2022-10-16T08:16:31;13.70;99.90
57108;DHT22;42987;52.916;6.542;2022-10-16T08:18:57;13.80;99.90
57108;DHT22;42987;52.916;6.542;2022-10-16T08:21:23;13.90;99.90
57108;DHT22;42987;52.916;6.542;2022-10-16T08:23:50;13.90;99.90
57108;DHT22;42987;52.916;6.542;2022-10-16T08:26:16;13.90;99.90
57108;DHT22;42987;52.916;6.542;2022-10-16T08:28:41;13.90;99.90
57108;DHT22;42987;52.916;6.542;2022-10-16T08:31:12;14.00;99.90
57108;DHT22;42987;52.916;6.542;2022-10-16T08:33:39;14.10;99.90
57108;DHT22;42987;52.916;6.542;2022-10-16T08:36:06;14.20;99.90
57108;DHT22;42987;52.916;6.542;2022-10-16T08:38:33;14.30;99.90
57108;DHT22;42987;52.916;6.542;2022-10-16T08:41:22;14.40;99.90
57108;DHT22;42987;52.916;6.542;2022-10-16T08:49:21;14.60;99.90
57108;DHT22;42987;52.916;6.542;2022-10-16T08:51:50;14.60;99.90
57108;DHT22;42987;52.916;6.542;2022-10-16T08:56:45;14.60;99.90
57108;DHT22;42987;52.916;6.542;2022-10-16T08:59:11;14.60;99.90
57108;DHT22;42987;52.916;6.542;2022-10-16T09:01:42;14.60;99.90
57108;DHT22;42987;52.916;6.542;2022-10-16T09:12:51;14.70;99.90
57108;DHT22;42987;52.916;6.542;2022-10-16T09:15:29;14.80;99.90
57108;DHT22;42987;52.916;6.542;2022-10-16T09:21:14;15.00;99.90
57108;DHT22;42987;52.916;6.542;2022-10-16T09:23:37;15.00;99.90
57108;DHT22;42987;52.916;6.542;2022-10-16T09:26:05;15.10;99.90
57108;DHT22;42987;52.916;6.542;2022-10-16T09:28:31;15.20;99.90
57108;DHT22;42987;52.916;6.542;2022-10-16T09:30:57;15.30;99.90
57108;DHT22;42987;52.916;6.542;2022-10-16T09:33:28;15.30;99.90
57108;DHT22;42987;52.916;6.542;2022-10-16T09:35:56;15.40;99.90
57108;DHT22;42987;52.916;6.542;2022-10-16T09:38:30;15.40;99.90
57108;DHT22;42987;52.916;6.542;2022-10-16T09:40:57;15.50;99.90
57108;DHT22;42987;52.916;6.542;2022-10-16T09:46:08;15.60;99.90
57108;DHT22;42987;52.916;6.542;2022-10-16T09:51:03;15.60;99.90
57108;DHT22;42987;52.916;6.542;2022-10-16T09:53:44;15.60;99.90
57108;DHT22;42987;52.916;6.542;2022-10-16T09:56:12;15.70;99.90
57108;DHT22;42987;52.916;6.542;2022-10-16T09:58:50;15.80;99.90
57108;DHT22;42987;52.916;6.542;2022-10-16T10:01:19;15.80;99.90
57108;DHT22;42987;52.916;6.542;2022-10-16T10:03:45;15.90;99.90
57108;DHT22;42987;52.916;6.542;2022-10-16T10:06:25;16.00;99.90
57108;DHT22;42987;52.916;6.542;2022-10-16T10:08:55;16.10;99.90
57108;DHT22;42987;52.916;6.542;2022-10-16T10:11:42;16.10;99.90
57108;DHT22;42987;52.916;6.542;2022-10-16T10:14:22;16.00;99.90
57108;DHT22;42987;52.916;6.542;2022-10-16T10:16:50;16.00;99.90
57108;DHT22;42987;52.916;6.542;2022-10-16T10:19:21;15.90;99.90
57108;DHT22;42987;52.916;6.542;2022-10-16T10:21:48;16.00;99.90
57108;DHT22;42987;52.916;6.542;2022-10-16T10:24:16;16.10;99.90
57108;DHT22;42987;52.916;6.542;2022-10-16T10:27:09;16.20;99.90
57108;DHT22;42987;52.916;6.542;2022-10-16T10:35:21;16.10;99.90
57108;DHT22;42987;52.916;6.542;2022-10-16T10:44:27;16.20;99.90
57108;DHT22;42987;52.916;6.542;2022-10-16T10:46:42;16.20;99.90
57108;DHT22;42987;52.916;6.542;2022-10-16T10:54:49;16.10;99.90
57108;DHT22;42987;52.916;6.542;2022-10-16T10:57:22;16.10;99.90
57108;DHT22;42987;52.916;6.542;2022-10-16T11:00:06;16.10;99.90
57108;DHT22;42987;52.916;6.542;2022-10-16T11:02:41;16.20;99.90
57108;DHT22;42987;52.916;6.542;2022-10-16T11:05:31;16.30;99.90
57108;DHT22;42987;52.916;6.542;2022-10-16T11:11:08;16.30;99.90
57108;DHT22;42987;52.916;6.542;2022-10-16T11:13:43;16.30;99.90
57108;DHT22;42987;52.916;6.542;2022-10-16T11:19:11;16.20;99.90
57108;DHT22;42987;52.916;6.542;2022-10-16T11:27:33;16.20;99.90
57108;DHT22;42987;52.916;6.542;2022-10-16T11:30:02;16.30;99.90
57108;DHT22;42987;52.916;6.542;2022-10-16T11:32:33;16.40;99.90
57108;DHT22;42987;52.916;6.542;2022-10-16T11:35:08;16.60;99.90
57108;DHT22;42987;52.916;6.542;2022-10-16T11:37:41;16.70;99.90
57108;DHT22;42987;52.916;6.542;2022-10-16T11:40:30;16.70;99.90
57108;DHT22;42987;52.916;6.542;2022-10-16T11:43:07;16.70;99.90
57108;DHT22;42987;52.916;6.542;2022-10-16T11:45:46;16.60;99.90
57108;DHT22;42987;52.916;6.542;2022-10-16T11:48:17;16.50;99.90
57108;DHT22;42987;52.916;6.542;2022-10-16T11:51:16;16.30;99.90
57108;DHT22;42987;52.916;6.542;2022-10-16T11:53:51;16.20;99.90
57108;DHT22;42987;52.916;6.542;2022-10-16T11:56:20;16.10;99.90
57108;DHT22;42987;52.916;6.542;2022-10-16T11:59:00;16.00;99.90
57108;DHT22;42987;52.916;6.542;2022-10-16T12:02:13;16.10;99.90
57108;DHT22;42987;52.916;6.542;2022-10-16T12:09:30;16.50;99.90
57108;DHT22;42987;52.916;6.542;2022-10-16T12:11:57;16.60;99.90
57108;DHT22;42987;52.916;6.542;2022-10-16T12:17:24;16.80;99.90
57108;DHT22;42987;52.916;6.542;2022-10-16T12:22:51;16.90;99.90
57108;DHT22;42987;52.916;6.542;2022-10-16T12:27:57;16.90;99.90
57108;DHT22;42987;52.916;6.542;2022-10-16T12:30:25;16.90;99.90
57108;DHT22;42987;52.916;6.542;2022-10-16T12:32:57;16.90;99.90
57108;DHT22;42987;52.916;6.542;2022-10-16T12:35:30;17.00;99.90
57108;DHT22;42987;52.916;6.542;2022-10-16T12:38:27;17.00;99.90
57108;DHT22;42987;52.916;6.542;2022-10-16T12:41:06;17.00;99.90
57108;DHT22;42987;52.916;6.542;2022-10-16T12:43:42;16.90;99.90
57108;DHT22;42987;52.916;6.542;2022-10-16T12:48:34;16.90;99.90
57108;DHT22;42987;52.916;6.542;2022-10-16T12:51:34;17.00;99.90
57108;DHT22;42987;52.916;6.542;2022-10-16T13:08:29;16.60;99.90
57108;DHT22;42987;52.916;6.542;2022-10-16T13:11:12;16.50;99.90
57108;DHT22;42987;52.916;6.542;2022-10-16T13:22:53;16.40;99.90
57108;DHT22;42987;52.916;6.542;2022-10-16T13:28:01;16.60;99.90
57108;DHT22;42987;52.916;6.542;2022-10-16T13:30:34;16.60;99.90
57108;DHT22;42987;52.916;6.542;2022-10-16T13:33:06;16.60;99.90
57108;DHT22;42987;52.916;6.542;2022-10-16T13:35:35;16.70;99.90
57108;DHT22;42987;52.916;6.542;2022-10-16T13:38:13;16.70;99.90
57108;DHT22;42987;52.916;6.542;2022-10-16T13:41:17;16.70;99.90
57108;DHT22;42987;52.916;6.542;2022-10-16T13:43:46;16.60;99.90
57108;DHT22;42987;52.916;6.542;2022-10-16T13:46:22;16.60;99.90
57108;DHT22;42987;52.916;6.542;2022-10-16T13:48:59;16.60;99.90
57108;DHT22;42987;52.916;6.542;2022-10-16T13:51:25;16.60;99.90
57108;DHT22;42987;52.916;6.542;2022-10-16T13:53:51;16.50;99.90
57108;DHT22;42987;52.916;6.542;2022-10-16T13:56:20;16.40;99.90
57108;DHT22;42987;52.916;6.542;2022-10-16T13:58:57;16.40;99.90
57108;DHT22;42987;52.916;6.542;2022-10-16T14:04:08;16.30;99.90
57108;DHT22;42987;52.916;6.542;2022-10-16T14:06:36;16.30;99.90
57108;DHT22;42987;52.916;6.542;2022-10-16T14:11:49;16.30;99.90
57108;DHT22;42987;52.916;6.542;2022-10-16T14:14:18;16.40;99.90
57108;DHT22;42987;52.916;6.542;2022-10-16T14:16:44;16.40;99.90
57108;DHT22;42987;52.916;6.542;2022-10-16T14:19:28;16.30;99.90
57108;DHT22;42987;52.916;6.542;2022-10-16T14:21:56;16.30;99.90
57108;DHT22;42987;52.916;6.542;2022-10-16T14:24:42;16.30;99.90
57108;DHT22;42987;52.916;6.542;2022-10-16T14:27:33;16.30;99.90
57108;DHT22;42987;52.916;6.542;2022-10-16T14:30:18;16.30;99.90
57108;DHT22;42987;52.916;6.542;2022-10-16T14:33:05;16.20;99.90
57108;DHT22;42987;52.916;6.542;2022-10-16T14:35:36;16.20;99.90
57108;DHT22;42987;52.916;6.542;2022-10-16T14:38:04;16.10;99.90
57108;DHT22;42987;52.916;6.542;2022-10-16T14:40:32;16.20;99.90
57108;DHT22;42987;52.916;6.542;2022-10-16T14:42:59;16.20;99.90
57108;DHT22;42987;52.916;6.542;2022-10-16T14:45:31;16.20;99.90
57108;DHT22;42987;52.916;6.542;2022-10-16T14:48:01;16.10;99.90
57108;DHT22;42987;52.916;6.542;2022-10-16T14:50:28;16.10;99.90
57108;DHT22;42987;52.916;6.542;2022-10-16T14:52:58;16.10;99.90
57108;DHT22;42987;52.916;6.542;2022-10-16T14:55:25;16.10;99.90
57108;DHT22;42987;52.916;6.542;2022-10-16T14:57:51;16.10;99.90
57108;DHT22;42987;52.916;6.542;2022-10-16T15:00:22;16.00;99.90
57108;DHT22;42987;52.916;6.542;2022-10-16T15:02:49;16.00;99.90
57108;DHT22;42987;52.916;6.542;2022-10-16T15:07:41;16.00;99.90
57108;DHT22;42987;52.916;6.542;2022-10-16T15:10:07;16.00;99.90
57108;DHT22;42987;52.916;6.542;2022-10-16T15:12:33;16.00;99.90
57108;DHT22;42987;52.916;6.542;2022-10-16T15:14:59;15.90;99.90
57108;DHT22;42987;52.916;6.542;2022-10-16T15:17:24;15.90;99.90
57108;DHT22;42987;52.916;6.542;2022-10-16T15:19:50;15.80;99.90
57108;DHT22;42987;52.916;6.542;2022-10-16T15:22:16;15.80;99.90
57108;DHT22;42987;52.916;6.542;2022-10-16T15:24:43;15.80;99.90
57108;DHT22;42987;52.916;6.542;2022-10-16T15:27:09;15.80;99.90
57108;DHT22;42987;52.916;6.542;2022-10-16T15:29:34;15.70;99.90
57108;DHT22;42987;52.916;6.542;2022-10-16T15:32:00;15.70;99.90
57108;DHT22;42987;52.916;6.542;2022-10-16T15:34:26;15.60;99.90
57108;DHT22;42987;52.916;6.542;2022-10-16T15:36:52;15.60;99.90
57108;DHT22;42987;52.916;6.542;2022-10-16T15:39:19;15.60;99.90
57108;DHT22;42987;52.916;6.542;2022-10-16T15:41:46;15.60;99.90
57108;DHT22;42987;52.916;6.542;2022-10-16T15:44:17;15.50;99.90
57108;DHT22;42987;52.916;6.542;2022-10-16T15:46:43;15.50;99.90
57108;DHT22;42987;52.916;6.542;2022-10-16T15:49:09;15.40;99.90
57108;DHT22;42987;52.916;6.542;2022-10-16T15:51:38;15.40;99.90
57108;DHT22;42987;52.916;6.542;2022-10-16T15:54:04;15.30;99.90
57108;DHT22;42987;52.916;6.542;2022-10-16T15:56:30;15.30;99.90
57108;DHT22;42987;52.916;6.542;2022-10-16T15:58:59;15.20;99.90
57108;DHT22;42987;52.916;6.542;2022-10-16T16:01:26;15.20;99.90
57108;DHT22;42987;52.916;6.542;2022-10-16T16:03:55;15.10;99.90
57108;DHT22;42987;52.916;6.542;2022-10-16T16:06:22;15.10;99.90
57108;DHT22;42987;52.916;6.542;2022-10-16T16:08:51;15.00;99.90
57108;DHT22;42987;52.916;6.542;2022-10-16T16:11:18;15.00;99.90
57108;DHT22;42987;52.916;6.542;2022-10-16T16:13:44;14.90;99.90
57108;DHT22;42987;52.916;6.542;2022-10-16T16:16:14;14.80;99.90
57108;DHT22;42987;52.916;6.542;2022-10-16T16:18:42;14.80;99.90
57108;DHT22;42987;52.916;6.542;2022-10-16T16:21:10;14.70;99.90
57108;DHT22;42987;52.916;6.542;2022-10-16T16:23:36;14.60;99.90
57108;DHT22;42987;52.916;6.542;2022-10-16T16:26:10;14.50;99.90
57108;DHT22;42987;52.916;6.542;2022-10-16T16:28:38;14.50;99.90
57108;DHT22;42987;52.916;6.542;2022-10-16T16:31:04;14.40;99.90
57108;DHT22;42987;52.916;6.542;2022-10-16T16:33:30;14.40;99.90
57108;DHT22;42987;52.916;6.542;2022-10-16T16:36:01;14.40;99.90
57108;DHT22;42987;52.916;6.542;2022-10-16T16:38:28;14.30;99.90
57108;DHT22;42987;52.916;6.542;2022-10-16T16:40:55;14.20;99.90
57108;DHT22;42987;52.916;6.542;2022-10-16T16:43:30;14.10;99.90
57108;DHT22;42987;52.916;6.542;2022-10-16T16:45:55;14.10;99.90
57108;DHT22;42987;52.916;6.542;2022-10-16T16:48:26;13.90;99.90
57108;DHT22;42987;52.916;6.542;2022-10-16T16:50:52;13.90;99.90
57108;DHT22;42987;52.916;6.542;2022-10-16T16:53:18;13.80;99.90
57108;DHT22;42987;52.916;6.542;2022-10-16T16:55:43;13.70;99.90
57108;DHT22;42987;52.916;6.542;2022-10-16T16:58:09;13.60;99.90
57108;DHT22;42987;52.916;6.542;2022-10-16T17:00:35;13.50;99.90
57108;DHT22;42987;52.916;6.542;2022-10-16T17:03:00;13.50;99.90
57108;DHT22;42987;52.916;6.542;2022-10-16T17:05:26;13.40;99.90
57108;DHT22;42987;52.916;6.542;2022-10-16T17:07:52;13.40;99.90
57108;DHT22;42987;52.916;6.542;2022-10-16T17:10:18;13.40;99.90
57108;DHT22;42987;52.916;6.542;2022-10-16T17:12:44;13.30;99.90
57108;DHT22;42987;52.916;6.542;2022-10-16T17:15:09;13.20;99.90
57108;DHT22;42987;52.916;6.542;2022-10-16T17:17:35;13.20;99.90
57108;DHT22;42987;52.916;6.542;2022-10-16T17:20:01;13.20;99.90
57108;DHT22;42987;52.916;6.542;2022-10-16T17:22:27;13.10;99.90
57108;DHT22;42987;52.916;6.542;2022-10-16T17:24:53;13.00;99.90
57108;DHT22;42987;52.916;6.542;2022-10-16T17:27:19;13.00;99.90
57108;DHT22;42987;52.916;6.542;2022-10-16T17:29:45;13.00;99.90
57108;DHT22;42987;52.916;6.542;2022-10-16T17:32:14;12.90;99.90
57108;DHT22;42987;52.916;6.542;2022-10-16T17:34:40;12.80;99.90
57108;DHT22;42987;52.916;6.542;2022-10-16T17:37:06;12.70;99.90
57108;DHT22;42987;52.916;6.542;2022-10-16T17:39:32;12.70;99.90
57108;DHT22;42987;52.916;6.542;2022-10-16T17:41:57;12.60;99.90
57108;DHT22;42987;52.916;6.542;2022-10-16T17:44:23;12.60;99.90
57108;DHT22;42987;52.916;6.542;2022-10-16T17:46:51;12.50;99.90
57108;DHT22;42987;52.916;6.542;2022-10-16T17:49:18;12.50;99.90
57108;DHT22;42987;52.916;6.542;2022-10-16T17:51:44;12.40;99.90